Dogtown, Illinois
Current Conditions -  °F | °C
As of 12:55 PM on Saturday 25 Oct 2014 (Local Time) from KCUL Reporting Station
Clear Clear  
Wind Chill: 78°   Ceiling: Unl
Heat Index: 79°   Visibility: 10mi
Dew Point: 60°   Wind: 5mph
Humidity: 54%   Direction: 280°W
Pressure: 30"   Gusts: NA
Location:  38.0491°N, 88.1124°W
Report Text: KCUL 251755Z AUTO 28004KT 10SM CLR 25/16 A3000 RMK AO2 T02540155 10254 20123
Loading
Personal Weather Stations






























Interactive Weather Map
Tropical Storm Tracking
New forecast layout! Learn more

10-Day Weather Forecast

Advertisements
Track Severe Weather on mobile